Detroit, Michigan
Current Conditions -  °F | °C
As of 1:00 AM on Wednesday 22 Oct 2014 (Local Time) from CYQG Reporting Station
Overcast Overcast  
Wind Chill:   Ceiling: 1700
Heat Index:   Visibility: 15mi
Dew Point:   Wind: 15mph
Humidity: 81%   Direction: 350°N
Pressure: 30.19"   Gusts: NA
Location:  42.33°N, 83.05°W
Report Text: CYQG 220500Z 35013KT 15SM OVC017 07/04 A3019 RMK SC8 SLP227
Loading
Personal Weather Stations






























Interactive Weather Map New forecast layout! Learn more

10-Day Weather Forecast

Advertisements
Track Severe Weather on mobile